Time;durP1;ratioP1;P1;durP2;ratioP2;P2;SDS_P1;SDS_P2;PMS_P1;PMS_P2;Temp;Humidity;BMP_temperature;BMP_pressure;BME280_temperature;BME280_humidity;BME280_pressure;Samples;Min_cycle;Max_cycle;Signal;HPM_P1;HPM_P2
2021/07/06 00:04:39;;;;;;;;;;;;;;;19.22;61.32;99125.52;531477;1089;102225;-62
2021/07/06 00:14:44;;;;;;;;;;;;;;;19.00;61.94;99130.49;531058;1089;104872;-61
2021/07/06 00:24:49;;;;;;;;;;;;;;;18.84;62.55;99125.94;518533;1089;169198;-62
2021/07/06 00:34:54;;;;;;;;;;;;;;;18.71;63.03;99130.91;529568;1088;103433;-62
2021/07/06 00:44:59;;;;;;;;;;;;;;;18.69;63.39;99140.84;530859;1088;102747;-62
2021/07/06 00:55:04;;;;;;;;;;;;;;;18.63;63.46;99144.98;531462;1089;102962;-61
2021/07/06 01:05:11;;;;;;;;;;;;;;;18.52;63.80;99148.78;531530;1090;102710;-62
2021/07/06 01:15:17;;;;;;;;;;;;;;;18.39;63.88;99148.41;530904;1088;103048;-62
2021/07/06 01:25:22;;;;;;;;;;;;;;;18.14;64.34;99146.47;532824;1089;103277;-63
2021/07/06 01:35:27;;;;;;;;;;;;;;;17.91;64.66;99151.47;532862;1089;102425;-62
2021/07/06 01:45:32;;;;;;;;;;;;;;;17.68;65.05;99149.33;532203;1089;102627;-63
2021/07/06 01:55:38;;;;;;;;;;;;;;;17.44;65.28;99156.13;532857;1089;101653;-62
2021/07/06 02:05:43;;;;;;;;;;;;;;;17.21;65.84;99159.25;532858;1089;102294;-63
2021/07/06 02:15:49;;;;;;;;;;;;;;;17.00;66.20;99158.71;532736;1090;103309;-62
2021/07/06 02:25:54;;;;;;;;;;;;;;;16.87;66.54;99183.75;531462;1089;104113;-61
2021/07/06 02:36:03;;;;;;;;;;;;;;;16.86;66.72;99175.93;532243;1089;102804;-63
2021/07/06 02:46:09;;;;;;;;;;;;;;;17.02;66.77;99184.08;532870;1089;102769;-62
2021/07/06 02:56:14;;;;;;;;;;;;;;;17.34;66.89;99195.99;532974;1089;102866;-62
2021/07/06 03:06:19;;;;;;;;;;;;;;;18.78;65.38;99203.70;532208;1090;103358;-62
2021/07/06 03:16:24;;;;;;;;;;;;;;;22.58;60.92;99212.19;532718;1089;102085;-61
2021/07/06 03:26:29;;;;;;;;;;;;;;;23.06;56.56;99211.73;531471;1088;102435;-62
2021/07/06 03:36:34;;;;;;;;;;;;;;;22.30;57.49;99212.83;530822;1089;102960;-61
2021/07/06 03:46:39;;;;;;;;;;;;;;;21.36;57.56;99210.31;531443;1090;103528;-61
2021/07/06 03:56:44;;;;;;;;;;;;;;;20.90;59.06;99210.27;531432;1090;103152;-61
2021/07/06 04:06:49;;;;;;;;;;;;;;;27.68;54.37;99227.25;531474;1090;102107;-61
2021/07/06 04:16:53;;;;;;;;;;;;;;;33.43;44.64;99218.50;532874;1089;102494;-61
2021/07/06 04:26:59;;;;;;;;;;;;;;;37.49;38.36;99215.62;532152;1090;102181;-61
2021/07/06 04:37:04;;;;;;;;;;;;;;;41.27;32.82;99217.00;531483;1089;101564;-62
2021/07/06 04:47:09;;;;;;;;;;;;;;;44.56;27.97;99221.16;532794;1090;102424;-62
2021/07/06 04:57:14;;;;;;;;;;;;;;;46.66;24.65;99221.12;532185;1089;104957;-63
2021/07/06 05:07:18;;;;;;;;;;;;;;;48.51;21.44;99220.33;532852;1089;102086;-63
2021/07/06 05:17:23;;;;;;;;;;;;;;;49.85;20.28;99234.00;531437;1089;102724;-63
2021/07/06 05:27:28;;;;;;;;;;;;;;;52.03;17.94;99242.14;532198;1089;102504;-64
2021/07/06 05:37:33;;;;;;;;;;;;;;;53.38;16.63;99244.33;532873;1089;103948;-64
2021/07/06 05:47:39;;;;;;;;;;;;;;;53.92;15.20;99245.55;532892;1088;102886;-62
2021/07/06 05:57:44;;;;;;;;;;;;;;;55.36;14.20;99260.25;532203;1089;102505;-63
2021/07/06 06:07:49;;;;;;;;;;;;;;;55.05;13.57;99262.84;532850;1088;102174;-63
2021/07/06 06:17:54;;;;;;;;;;;;;;;56.94;12.62;99275.14;532131;1090;101707;-63
2021/07/06 06:28:00;;;;;;;;;;;;;;;58.39;11.85;99291.73;532823;1089;101999;-63
2021/07/06 06:38:04;;;;;;;;;;;;;;;59.04;10.61;99287.55;532867;1088;103451;-64
2021/07/06 06:48:09;;;;;;;;;;;;;;;59.45;9.62;99291.82;532199;1089;103172;-64
2021/07/06 06:58:14;;;;;;;;;;;;;;;59.50;9.98;99286.91;531521;1089;101372;-64
2021/07/06 07:08:18;;;;;;;;;;;;;;;60.80;8.63;99294.69;532840;1090;102952;-64
2021/07/06 07:18:23;;;;;;;;;;;;;;;61.76;8.41;99304.59;530801;1090;102800;-64
2021/07/06 07:28:28;;;;;;;;;;;;;;;62.23;7.77;99293.64;531457;1089;101874;-63
2021/07/06 07:38:32;;;;;;;;;;;;;;;62.72;7.55;99284.48;531397;1089;101730;-63
2021/07/06 07:48:37;;;;;;;;;;;;;;;61.71;7.44;99277.61;530798;1089;101862;-63
2021/07/06 07:58:42;;;;;;;;;;;;;;;52.23;10.39;99261.47;531454;1090;101615;-62
2021/07/06 08:08:47;;;;;;;;;;;;;;;45.11;14.40;99279.38;532191;1088;102618;-63
2021/07/06 08:18:52;;;;;;;;;;;;;;;40.97;17.19;99282.63;532750;1088;102662;-62
2021/07/06 08:29:00;;;;;;;;;;;;;;;37.88;20.39;99278.85;532830;1088;102469;-62
2021/07/06 08:39:05;;;;;;;;;;;;;;;35.24;22.23;99277.80;532130;1089;101889;-62
2021/07/06 08:49:12;;;;;;;;;;;;;;;34.13;24.26;99284.95;532841;1089;102725;-62
2021/07/06 08:59:17;;;;;;;;;;;;;;;33.63;25.15;99283.19;532804;1089;102526;-62
2021/07/06 09:09:22;;;;;;;;;;;;;;;33.99;24.69;99279.94;532215;1088;102781;-62
2021/07/06 09:19:27;;;;;;;;;;;;;;;34.23;25.36;99282.30;532809;1089;102136;-62
2021/07/06 09:29:32;;;;;;;;;;;;;;;34.36;25.18;99287.27;531482;1090;102287;-62
2021/07/06 09:39:41;;;;;;;;;;;;;;;33.67;25.49;99284.30;530844;1089;103364;-62
2021/07/06 09:49:54;;;;;;;;;;;;;;;32.93;26.63;99275.66;531458;1089;102482;-62
2021/07/06 10:00:00;;;;;;;;;;;;;;;32.98;26.63;99277.63;532261;1088;103785;-62
2021/07/06 10:10:09;;;;;;;;;;;;;;;32.76;27.30;99266.75;532847;1089;102113;-62
2021/07/06 10:20:20;;;;;;;;;;;;;;;31.97;28.16;99264.03;532759;1089;103692;-61
2021/07/06 10:30:29;;;;;;;;;;;;;;;31.61;28.19;99250.67;530825;1090;102767;-61
2021/07/06 10:40:43;;;;;;;;;;;;;;;31.81;28.45;99252.11;532867;1089;102283;-62
2021/07/06 10:50:48;;;;;;;;;;;;;;;31.49;28.50;99236.36;532122;1090;102271;-62
2021/07/06 11:00:53;;;;;;;;;;;;;;;30.84;29.82;99236.54;532899;1090;102010;-61
2021/07/06 11:10:58;;;;;;;;;;;;;;;30.45;29.56;99228.95;531396;1089;102076;-63
2021/07/06 11:21:03;;;;;;;;;;;;;;;30.13;31.31;99237.47;532294;1089;103324;-62
2021/07/06 11:31:16;;;;;;;;;;;;;;;30.33;30.95;99226.28;532800;1089;102783;-63
2021/07/06 11:41:23;;;;;;;;;;;;;;;30.67;31.05;99221.05;532874;1088;102895;-62
2021/07/06 11:51:28;;;;;;;;;;;;;;;30.82;30.39;99211.58;530835;1089;102702;-63
2021/07/06 12:01:32;;;;;;;;;;;;;;;30.84;30.83;99198.59;531928;1090;102152;-62
2021/07/06 12:11:37;;;;;;;;;;;;;;;30.77;31.16;99200.65;522071;1088;102410;-63
2021/07/06 12:21:43;;;;;;;;;;;;;;;31.01;31.22;99180.50;530801;1090;103202;-63
2021/07/06 12:31:50;;;;;;;;;;;;;;;31.24;30.46;99177.92;531497;1089;102108;-61
2021/07/06 12:41:56;;;;;;;;;;;;;;;31.15;29.70;99172.05;530898;1089;101652;-62
2021/07/06 12:52:02;;;;;;;;;;;;;;;30.72;30.54;99163.44;531427;1089;103209;-63
2021/07/06 13:02:20;;;;;;;;;;;;;;;30.50;30.81;99168.66;531420;1090;101833;-63
2021/07/06 13:12:27;;;;;;;;;;;;;;;30.26;31.42;99158.73;530846;1090;103422;-63
2021/07/06 13:22:32;;;;;;;;;;;;;;;30.08;31.35;99157.00;532875;1089;104708;-62
2021/07/06 13:32:39;;;;;;;;;;;;;;;29.76;32.43;99151.94;527481;1089;101920;-62
2021/07/06 13:42:44;;;;;;;;;;;;;;;29.71;32.25;99139.11;530822;1089;102348;-63
2021/07/06 13:52:49;;;;;;;;;;;;;;;29.55;32.63;99128.98;531526;1089;102025;-63
2021/07/06 14:02:57;;;;;;;;;;;;;;;29.80;32.66;99128.75;530866;1087;102593;-62
2021/07/06 14:13:02;;;;;;;;;;;;;;;29.87;32.22;99136.73;532809;1090;102975;-63
2021/07/06 14:23:09;;;;;;;;;;;;;;;30.24;32.00;99114.00;531531;1089;103666;-62
2021/07/06 14:33:14;;;;;;;;;;;;;;;30.05;31.44;99114.15;532223;1089;102566;-63
2021/07/06 14:43:22;;;;;;;;;;;;;;;29.72;32.46;99113.70;520674;1089;104162;-62
2021/07/06 14:53:26;;;;;;;;;;;;;;;29.86;32.08;99110.75;532789;1090;103684;-64
2021/07/06 15:03:31;;;;;;;;;;;;;;;29.73;32.04;99109.94;532292;1089;103236;-62
2021/07/06 15:13:39;;;;;;;;;;;;;;;29.54;32.50;99111.11;531404;1089;102736;-62
2021/07/06 15:23:44;;;;;;;;;;;;;;;29.76;32.24;99100.53;532850;1089;102636;-63
2021/07/06 15:33:49;;;;;;;;;;;;;;;29.43;32.29;99104.63;532929;1089;102734;-61
2021/07/06 15:43:54;;;;;;;;;;;;;;;29.58;32.78;99109.61;531461;1089;102260;-62
2021/07/06 15:53:58;;;;;;;;;;;;;;;29.32;32.33;99098.14;532248;1090;102154;-62
2021/07/06 16:04:03;;;;;;;;;;;;;;;29.22;32.94;99101.44;532846;1090;102600;-62
2021/07/06 16:14:08;;;;;;;;;;;;;;;29.06;33.02;99102.94;532826;1090;102197;-62
2021/07/06 16:24:13;;;;;;;;;;;;;;;29.02;33.22;99104.47;531974;1089;102922;-62
2021/07/06 16:34:17;;;;;;;;;;;;;;;28.79;33.44;99108.73;532859;1088;102616;-62
2021/07/06 16:44:22;;;;;;;;;;;;;;;28.74;33.76;99111.28;531472;1089;102478;-62
2021/07/06 18:07:11;;;;;;;;;;;;;;;27.49;36.33;99150.01;532890;1090;102260;-62
2021/07/06 18:17:19;;;;;;;;;;;;;;;27.11;37.18;99152.58;532660;1089;102728;-62
2021/07/06 18:27:24;;;;;;;;;;;;;;;26.86;37.41;99166.80;532179;1088;104695;-62
2021/07/06 18:37:29;;;;;;;;;;;;;;;26.69;37.94;99168.33;531435;1090;103461;-62
2021/07/06 18:47:34;;;;;;;;;;;;;;;26.48;38.28;99181.05;531500;1089;103074;-62
2021/07/06 18:57:39;;;;;;;;;;;;;;;26.22;39.18;99180.09;532136;1089;103536;-62
2021/07/06 19:07:48;;;;;;;;;;;;;;;25.94;39.40;99183.03;532819;1089;103349;-62
2021/07/06 19:17:53;;;;;;;;;;;;;;;25.62;40.32;99196.28;532033;1089;103066;-62
2021/07/06 19:27:59;;;;;;;;;;;;;;;25.34;40.82;99200.81;531489;1088;102485;-62
2021/07/06 19:38:05;;;;;;;;;;;;;;;25.06;41.45;99207.15;531452;1089;102512;-62
2021/07/06 19:48:10;;;;;;;;;;;;;;;24.84;41.95;99215.34;530791;1090;104025;-64
2021/07/06 19:58:15;;;;;;;;;;;;;;;24.66;42.54;99218.55;532824;1089;103444;-63
2021/07/06 20:08:20;;;;;;;;;;;;;;;24.52;43.25;99220.33;532481;1089;103316;-62
2021/07/06 20:18:25;;;;;;;;;;;;;;;24.35;43.46;99225.20;532192;1089;104313;-63
2021/07/06 20:28:30;;;;;;;;;;;;;;;24.14;44.63;99228.79;532830;1089;103217;-63
2021/07/06 20:38:35;;;;;;;;;;;;;;;23.91;45.26;99230.68;532904;1089;101955;-62
2021/07/06 20:48:41;;;;;;;;;;;;;;;23.64;46.16;99217.04;532253;1089;102377;-61
2021/07/06 20:58:46;;;;;;;;;;;;;;;23.39;47.07;99230.03;532868;1090;102638;-62
2021/07/06 21:08:51;;;;;;;;;;;;;;;23.17;48.08;99235.33;532258;1089;104397;-63
2021/07/06 21:18:55;;;;;;;;;;;;;;;22.95;49.21;99242.48;531451;1090;102797;-64
2021/07/06 21:29:00;;;;;;;;;;;;;;;22.73;50.10;99244.28;531418;1089;102449;-63
2021/07/06 21:39:05;;;;;;;;;;;;;;;22.50;51.32;99242.55;530751;1089;101947;-63
2021/07/06 21:49:10;;;;;;;;;;;;;;;22.33;52.14;99247.22;532851;1090;102750;-62
2021/07/06 21:59:17;;;;;;;;;;;;;;;22.21;53.05;99255.69;531435;1089;102314;-62
2021/07/06 22:09:22;;;;;;;;;;;;;;;22.09;53.73;99251.80;530881;1090;102659;-62
2021/07/06 22:19:26;;;;;;;;;;;;;;;21.99;54.19;99249.40;531405;1089;104830;-63
2021/07/06 22:29:31;;;;;;;;;;;;;;;21.81;55.11;99242.52;532796;1090;103565;-62
2021/07/06 22:39:36;;;;;;;;;;;;;;;21.65;55.81;99247.98;532162;1088;103850;-62
2021/07/06 22:49:41;;;;;;;;;;;;;;;21.51;56.29;99249.59;532797;1089;102396;-62
2021/07/06 22:59:46;;;;;;;;;;;;;;;21.41;56.51;99252.47;530813;1090;102900;-62
2021/07/06 23:09:51;;;;;;;;;;;;;;;21.39;57.13;99257.16;531412;1090;103098;-63
2021/07/06 23:19:56;;;;;;;;;;;;;;;21.44;57.32;99259.31;531460;1090;103346;-63
2021/07/06 23:30:00;;;;;;;;;;;;;;;21.37;57.23;99262.70;532224;1089;102583;-62
2021/07/06 23:40:06;;;;;;;;;;;;;;;21.20;57.90;99277.98;532789;1089;103033;-62
2021/07/06 23:50:12;;;;;;;;;;;;;;;20.96;58.30;99271.77;524901;1089;102363;-61
